sensor_id;sensor_type;location;lat;lon;timestamp;pressure;altitude;pressure_sealevel;temperature;humidity
65376;BME280;51976;47.332;9.404;2023-02-28T00:00:05;92744.09;;;-2.19;66.42
65376;BME280;51976;47.332;9.404;2023-02-28T00:02:37;92755.00;;;-2.02;66.15
65376;BME280;51976;47.332;9.404;2023-02-28T00:05:04;92762.38;;;-2.24;66.95
65376;BME280;51976;47.332;9.404;2023-02-28T00:07:30;92751.16;;;-2.13;66.14
65376;BME280;51976;47.332;9.404;2023-02-28T00:09:56;92761.97;;;-2.21;65.93
65376;BME280;51976;47.332;9.404;2023-02-28T00:12:21;92766.81;;;-2.18;66.25
65376;BME280;51976;47.332;9.404;2023-02-28T00:14:46;92762.97;;;-2.16;66.18
65376;BME280;51976;47.332;9.404;2023-02-28T00:17:12;92755.44;;;-2.12;65.80
65376;BME280;51976;47.332;9.404;2023-02-28T00:19:37;92763.78;;;-2.15;66.03
65376;BME280;51976;47.332;9.404;2023-02-28T00:22:03;92749.59;;;-2.34;66.48
65376;BME280;51976;47.332;9.404;2023-02-28T00:24:28;92732.16;;;-2.42;66.49
65376;BME280;51976;47.332;9.404;2023-02-28T00:26:53;92760.78;;;-2.32;66.75
65376;BME280;51976;47.332;9.404;2023-02-28T00:29:19;92756.09;;;-2.23;66.58
65376;BME280;51976;47.332;9.404;2023-02-28T00:31:44;92751.44;;;-2.28;66.80
65376;BME280;51976;47.332;9.404;2023-02-28T00:34:10;92757.72;;;-2.29;66.98
65376;BME280;51976;47.332;9.404;2023-02-28T00:36:35;92743.94;;;-2.38;66.98
65376;BME280;51976;47.332;9.404;2023-02-28T00:39:00;92748.19;;;-2.30;66.70
65376;BME280;51976;47.332;9.404;2023-02-28T00:41:26;92763.56;;;-2.14;66.76
65376;BME280;51976;47.332;9.404;2023-02-28T00:43:51;92761.13;;;-2.15;66.87
65376;BME280;51976;47.332;9.404;2023-02-28T00:46:16;92744.53;;;-2.35;67.07
65376;BME280;51976;47.332;9.404;2023-02-28T00:48:42;92761.59;;;-2.31;67.19
65376;BME280;51976;47.332;9.404;2023-02-28T00:51:07;92760.16;;;-2.34;67.37
65376;BME280;51976;47.332;9.404;2023-02-28T00:53:33;92757.47;;;-2.14;67.09
65376;BME280;51976;47.332;9.404;2023-02-28T00:55:58;92743.69;;;-2.23;67.38
65376;BME280;51976;47.332;9.404;2023-02-28T00:58:24;92758.06;;;-2.12;67.08
65376;BME280;51976;47.332;9.404;2023-02-28T01:00:51;92766.66;;;-2.23;67.30
65376;BME280;51976;47.332;9.404;2023-02-28T01:03:18;92745.19;;;-2.47;67.64
65376;BME280;51976;47.332;9.404;2023-02-28T01:05:44;92763.19;;;-2.24;67.21
65376;BME280;51976;47.332;9.404;2023-02-28T01:08:10;92766.19;;;-2.07;66.88
65376;BME280;51976;47.332;9.404;2023-02-28T01:10:35;92758.31;;;-2.20;67.46
65376;BME280;51976;47.332;9.404;2023-02-28T01:13:02;92763.78;;;-2.15;67.34
65376;BME280;51976;47.332;9.404;2023-02-28T01:15:27;92760.75;;;-2.25;67.74
65376;BME280;51976;47.332;9.404;2023-02-28T01:17:53;92759.94;;;-2.19;67.56
65376;BME280;51976;47.332;9.404;2023-02-28T01:20:18;92751.22;;;-2.26;67.70
65376;BME280;51976;47.332;9.404;2023-02-28T01:22:43;92759.66;;;-1.98;66.88
65376;BME280;51976;47.332;9.404;2023-02-28T01:25:09;92730.28;;;-2.21;67.31
65376;BME280;51976;47.332;9.404;2023-02-28T01:27:34;92763.78;;;-2.15;67.45
65376;BME280;51976;47.332;9.404;2023-02-28T01:30:01;92752.03;;;-2.19;67.70
65376;BME280;51976;47.332;9.404;2023-02-28T01:32:26;92736.13;;;-2.06;67.51
65376;BME280;51976;47.332;9.404;2023-02-28T01:34:52;92734.16;;;-2.30;67.82
65376;BME280;51976;47.332;9.404;2023-02-28T01:37:17;92739.84;;;-2.20;67.35
65376;BME280;51976;47.332;9.404;2023-02-28T01:39:42;92747.38;;;-2.44;68.11
65376;BME280;51976;47.332;9.404;2023-02-28T01:42:09;92740.97;;;-2.74;68.74
65376;BME280;51976;47.332;9.404;2023-02-28T01:45:00;92752.25;;;-2.41;68.51
65376;BME280;51976;47.332;9.404;2023-02-28T01:47:30;92737.41;;;-2.28;68.05
65376;BME280;51976;47.332;9.404;2023-02-28T01:49:57;92749.44;;;-2.59;68.86
65376;BME280;51976;47.332;9.404;2023-02-28T01:52:23;92732.00;;;-2.53;68.81
65376;BME280;51976;47.332;9.404;2023-02-28T01:54:52;92738.44;;;-2.36;68.38
65376;BME280;51976;47.332;9.404;2023-02-28T01:57:23;92733.56;;;-2.46;68.21
65376;BME280;51976;47.332;9.404;2023-02-28T01:59:56;92744.16;;;-2.52;68.63
65376;BME280;51976;47.332;9.404;2023-02-28T02:02:24;92732.41;;;-2.56;68.77
65376;BME280;51976;47.332;9.404;2023-02-28T02:04:55;92731.78;;;-2.52;68.74
65376;BME280;51976;47.332;9.404;2023-02-28T02:07:23;92735.03;;;-2.50;68.75
65376;BME280;51976;47.332;9.404;2023-02-28T02:10:13;92746.59;;;-2.51;68.83
65376;BME280;51976;47.332;9.404;2023-02-28T02:13:19;92755.13;;;-2.49;69.18
65376;BME280;51976;47.332;9.404;2023-02-28T02:18:47;92744.59;;;-2.62;69.64
65376;BME280;51976;47.332;9.404;2023-02-28T02:24:47;92733.41;;;-2.70;69.33
65376;BME280;51976;47.332;9.404;2023-02-28T02:27:25;92734.06;;;-2.75;69.78
65376;BME280;51976;47.332;9.404;2023-02-28T02:30:21;92745.81;;;-2.71;69.61
65376;BME280;51976;47.332;9.404;2023-02-28T02:33:06;92721.88;;;-2.83;69.48
65376;BME280;51976;47.332;9.404;2023-02-28T02:35:47;92725.09;;;-2.61;69.66
65376;BME280;51976;47.332;9.404;2023-02-28T02:38:38;92733.41;;;-2.57;69.25
65376;BME280;51976;47.332;9.404;2023-02-28T02:41:24;92731.00;;;-2.92;70.08
65376;BME280;51976;47.332;9.404;2023-02-28T02:46:47;92738.53;;;-3.02;70.90
65376;BME280;51976;47.332;9.404;2023-02-28T02:49:19;92734.06;;;-3.01;71.02
65376;BME280;51976;47.332;9.404;2023-02-28T02:51:47;92730.00;;;-2.91;71.22
65376;BME280;51976;47.332;9.404;2023-02-28T02:54:17;92732.03;;;-2.86;70.79
65376;BME280;51976;47.332;9.404;2023-02-28T02:56:47;92732.59;;;-2.71;70.45
65376;BME280;51976;47.332;9.404;2023-02-28T02:59:16;92717.00;;;-2.99;71.25
65376;BME280;51976;47.332;9.404;2023-02-28T03:01:49;92713.78;;;-3.08;71.14
65376;BME280;51976;47.332;9.404;2023-02-28T03:04:20;92735.88;;;-2.82;71.06
65376;BME280;51976;47.332;9.404;2023-02-28T03:06:47;92730.41;;;-2.94;71.30
65376;BME280;51976;47.332;9.404;2023-02-28T03:09:13;92736.91;;;-3.29;71.93
65376;BME280;51976;47.332;9.404;2023-02-28T03:11:39;92739.75;;;-3.04;71.45
65376;BME280;51976;47.332;9.404;2023-02-28T03:14:19;92687.81;;;-3.37;71.37
65376;BME280;51976;47.332;9.404;2023-02-28T03:17:23;92728.81;;;-3.01;71.28
65376;BME280;51976;47.332;9.404;2023-02-28T03:20:13;92736.91;;;-3.03;71.37
65376;BME280;51976;47.332;9.404;2023-02-28T03:23:00;92735.69;;;-2.87;70.90
65376;BME280;51976;47.332;9.404;2023-02-28T03:25:52;92743.78;;;-2.95;70.85
65376;BME280;51976;47.332;9.404;2023-02-28T03:28:31;92740.53;;;-2.91;70.85
65376;BME280;51976;47.332;9.404;2023-02-28T03:31:07;92738.31;;;-2.94;71.02
65376;BME280;51976;47.332;9.404;2023-02-28T03:33:39;92719.84;;;-2.81;69.96
65376;BME280;51976;47.332;9.404;2023-02-28T03:36:17;92720.06;;;-2.82;70.03
65376;BME280;51976;47.332;9.404;2023-02-28T03:38:52;92729.41;;;-3.13;70.77
65376;BME280;51976;47.332;9.404;2023-02-28T03:41:22;92739.13;;;-3.13;71.16
65376;BME280;51976;47.332;9.404;2023-02-28T03:44:01;92736.28;;;-3.18;71.52
65376;BME280;51976;47.332;9.404;2023-02-28T03:46:31;92742.78;;;-2.94;70.90
65376;BME280;51976;47.332;9.404;2023-02-28T03:49:06;92749.25;;;-2.97;70.80
65376;BME280;51976;47.332;9.404;2023-02-28T03:51:35;92752.09;;;-2.98;70.97
65376;BME280;51976;47.332;9.404;2023-02-28T03:54:09;92768.16;;;-3.07;70.96
65376;BME280;51976;47.332;9.404;2023-02-28T03:56:43;92750.69;;;-3.21;71.21
65376;BME280;51976;47.332;9.404;2023-02-28T03:59:16;92746.25;;;-3.07;70.74
65376;BME280;51976;47.332;9.404;2023-02-28T04:01:45;92757.19;;;-2.77;70.43
65376;BME280;51976;47.332;9.404;2023-02-28T04:04:12;92743.19;;;-2.84;69.88
65376;BME280;51976;47.332;9.404;2023-02-28T04:06:38;92757.41;;;-2.85;70.19
65376;BME280;51976;47.332;9.404;2023-02-28T04:09:05;92759.81;;;-2.70;70.27
65376;BME280;51976;47.332;9.404;2023-02-28T04:11:42;92758.81;;;-2.89;70.54
65376;BME280;51976;47.332;9.404;2023-02-28T04:14:10;92741.97;;;-3.08;70.42
65376;BME280;51976;47.332;9.404;2023-02-28T04:16:39;92752.09;;;-2.72;69.99
65376;BME280;51976;47.332;9.404;2023-02-28T04:19:06;92761.84;;;-2.73;70.34
65376;BME280;51976;47.332;9.404;2023-02-28T04:21:35;92767.72;;;-2.57;69.64
65376;BME280;51976;47.332;9.404;2023-02-28T04:24:02;92756.56;;;-2.53;69.13
65376;BME280;51976;47.332;9.404;2023-02-28T04:26:29;92763.06;;;-2.62;69.09
65376;BME280;51976;47.332;9.404;2023-02-28T04:28:55;92764.28;;;-2.71;69.74
65376;BME280;51976;47.332;9.404;2023-02-28T04:31:21;92765.50;;;-2.67;69.46
65376;BME280;51976;47.332;9.404;2023-02-28T04:33:46;92751.06;;;-2.71;69.19
65376;BME280;51976;47.332;9.404;2023-02-28T04:36:12;92763.25;;;-2.63;69.60
65376;BME280;51976;47.332;9.404;2023-02-28T04:38:39;92743.38;;;-2.86;69.72
65376;BME280;51976;47.332;9.404;2023-02-28T04:41:04;92735.47;;;-2.92;69.70
65376;BME280;51976;47.332;9.404;2023-02-28T04:43:31;92753.94;;;-2.79;69.87
65376;BME280;51976;47.332;9.404;2023-02-28T04:45:57;92753.53;;;-2.76;69.44
65376;BME280;51976;47.332;9.404;2023-02-28T04:48:24;92720.47;;;-2.98;69.64
65376;BME280;51976;47.332;9.404;2023-02-28T04:50:50;92765.50;;;-2.67;69.34
65376;BME280;51976;47.332;9.404;2023-02-28T04:53:15;92773.19;;;-2.98;70.13
65376;BME280;51976;47.332;9.404;2023-02-28T04:55:41;92766.13;;;-2.78;69.73
65376;BME280;51976;47.332;9.404;2023-02-28T04:58:06;92773.03;;;-3.03;70.05
65376;BME280;51976;47.332;9.404;2023-02-28T05:00:32;92786.19;;;-3.03;70.12
65376;BME280;51976;47.332;9.404;2023-02-28T05:02:57;92763.25;;;-3.23;70.59
65376;BME280;51976;47.332;9.404;2023-02-28T05:05:22;92775.47;;;-3.02;70.26
65376;BME280;51976;47.332;9.404;2023-02-28T05:07:48;92771.97;;;-3.22;70.80
65376;BME280;51976;47.332;9.404;2023-02-28T05:10:13;92761.63;;;-3.24;70.77
65376;BME280;51976;47.332;9.404;2023-02-28T05:12:39;92776.66;;;-2.98;69.64
65376;BME280;51976;47.332;9.404;2023-02-28T05:15:05;92768.75;;;-2.98;70.19
65376;BME280;51976;47.332;9.404;2023-02-28T05:17:30;92774.22;;;-3.06;70.14
65376;BME280;51976;47.332;9.404;2023-02-28T05:19:56;92792.91;;;-2.81;69.68
65376;BME280;51976;47.332;9.404;2023-02-28T05:22:21;92771.34;;;-3.24;70.75
65376;BME280;51976;47.332;9.404;2023-02-28T05:24:47;92759.63;;;-3.09;70.25
65376;BME280;51976;47.332;9.404;2023-02-28T05:27:12;92785.78;;;-3.14;71.07
65376;BME280;51976;47.332;9.404;2023-02-28T05:29:38;92789.03;;;-2.98;70.54
65376;BME280;51976;47.332;9.404;2023-02-28T05:32:09;92766.72;;;-3.16;70.62
65376;BME280;51976;47.332;9.404;2023-02-28T05:34:36;92758.38;;;-3.39;71.14
65376;BME280;51976;47.332;9.404;2023-02-28T05:37:01;92788.59;;;-3.22;71.26
65376;BME280;51976;47.332;9.404;2023-02-28T05:39:27;92791.06;;;-2.87;70.12
65376;BME280;51976;47.332;9.404;2023-02-28T05:41:52;92764.09;;;-3.02;70.09
65376;BME280;51976;47.332;9.404;2023-02-28T05:44:18;92783.38;;;-3.02;70.22
65376;BME280;51976;47.332;9.404;2023-02-28T05:46:43;92786.38;;;-2.98;70.65
65376;BME280;51976;47.332;9.404;2023-02-28T05:49:09;92791.44;;;-3.17;71.14
65376;BME280;51976;47.332;9.404;2023-02-28T05:51:34;92786.16;;;-3.30;71.20
65376;BME280;51976;47.332;9.404;2023-02-28T05:54:01;92790.03;;;-3.13;70.97
65376;BME280;51976;47.332;9.404;2023-02-28T05:56:27;92780.47;;;-3.33;71.21
65376;BME280;51976;47.332;9.404;2023-02-28T05:58:53;92787.59;;;-3.21;70.55
65376;BME280;51976;47.332;9.404;2023-02-28T06:01:24;92797.72;;;-3.24;71.12
65376;BME280;51976;47.332;9.404;2023-02-28T06:03:50;92800.16;;;-3.23;71.27
65376;BME280;51976;47.332;9.404;2023-02-28T06:06:15;92805.81;;;-3.26;71.59
65376;BME280;51976;47.332;9.404;2023-02-28T06:08:41;92800.97;;;-3.29;71.10
65376;BME280;51976;47.332;9.404;2023-02-28T06:11:08;92813.97;;;-3.14;70.60
65376;BME280;51976;47.332;9.404;2023-02-28T06:13:34;92774.50;;;-3.68;71.33
65376;BME280;51976;47.332;9.404;2023-02-28T06:16:02;92798.69;;;-3.45;71.18
65376;BME280;51976;47.332;9.404;2023-02-28T06:18:27;92804.75;;;-3.51;71.08
65376;BME280;51976;47.332;9.404;2023-02-28T06:20:53;92809.91;;;-3.30;70.88
65376;BME280;51976;47.332;9.404;2023-02-28T06:23:20;92809.28;;;-3.19;70.61
65376;BME280;51976;47.332;9.404;2023-02-28T06:25:46;92826.91;;;-3.39;71.03
65376;BME280;51976;47.332;9.404;2023-02-28T06:28:11;92787.72;;;-3.55;70.78
65376;BME280;51976;47.332;9.404;2023-02-28T06:30:37;92830.59;;;-3.14;70.51
65376;BME280;51976;47.332;9.404;2023-02-28T06:33:03;92817.81;;;-3.17;70.34
65376;BME280;51976;47.332;9.404;2023-02-28T06:35:28;92827.53;;;-3.24;70.36
65376;BME280;51976;47.332;9.404;2023-02-28T06:37:54;92834.22;;;-3.34;70.92
65376;BME280;51976;47.332;9.404;2023-02-28T06:40:20;92826.91;;;-3.39;71.11
65376;BME280;51976;47.332;9.404;2023-02-28T06:42:45;92828.94;;;-3.28;70.66
65376;BME280;51976;47.332;9.404;2023-02-28T06:45:11;92829.13;;;-3.36;70.86
65376;BME280;51976;47.332;9.404;2023-02-28T06:47:38;92852.59;;;-3.48;71.56
65376;BME280;51976;47.332;9.404;2023-02-28T06:50:06;92837.78;;;-3.49;71.68
65376;BME280;51976;47.332;9.404;2023-02-28T06:52:32;92859.78;;;-3.28;71.02
65376;BME280;51976;47.332;9.404;2023-02-28T06:54:57;92815.50;;;-3.59;71.34
65376;BME280;51976;47.332;9.404;2023-02-28T06:57:29;92864.22;;;-3.35;71.60
65376;BME280;51976;47.332;9.404;2023-02-28T06:59:57;92819.69;;;-3.71;71.93
65376;BME280;51976;47.332;9.404;2023-02-28T07:02:23;92847.81;;;-3.31;71.46
65376;BME280;51976;47.332;9.404;2023-02-28T07:04:49;92872.94;;;-3.35;71.85
65376;BME280;51976;47.332;9.404;2023-02-28T07:07:14;92855.81;;;-3.59;72.25
65376;BME280;51976;47.332;9.404;2023-02-28T07:09:42;92838.34;;;-3.66;72.28
65376;BME280;51976;47.332;9.404;2023-02-28T07:12:07;92872.53;;;-3.32;71.92
65376;BME280;51976;47.332;9.404;2023-02-28T07:14:33;92853.25;;;-3.39;71.78
65376;BME280;51976;47.332;9.404;2023-02-28T07:16:58;92872.41;;;-3.04;71.30
65376;BME280;51976;47.332;9.404;2023-02-28T07:19:23;92879.09;;;-3.08;71.26
65376;BME280;51976;47.332;9.404;2023-02-28T07:21:49;92880.31;;;-3.11;70.90
65376;BME280;51976;47.332;9.404;2023-02-28T07:24:17;92890.19;;;-3.32;72.00
65376;BME280;51976;47.332;9.404;2023-02-28T07:26:43;92889.19;;;-3.18;71.61
65376;BME280;51976;47.332;9.404;2023-02-28T07:29:09;92888.16;;;-3.24;71.83
65376;BME280;51976;47.332;9.404;2023-02-28T07:31:34;92898.09;;;-3.26;71.67
65376;BME280;51976;47.332;9.404;2023-02-28T07:34:00;92884.50;;;-3.23;71.80
65376;BME280;51976;47.332;9.404;2023-02-28T07:36:25;92891.00;;;-3.32;71.87
65376;BME280;51976;47.332;9.404;2023-02-28T07:38:50;92898.28;;;-3.34;71.95
65376;BME280;51976;47.332;9.404;2023-02-28T07:41:18;92892.69;;;-3.11;71.20
65376;BME280;51976;47.332;9.404;2023-02-28T07:43:44;92897.03;;;-3.38;71.72
65376;BME280;51976;47.332;9.404;2023-02-28T07:46:12;92906.06;;;-3.13;70.82
65376;BME280;51976;47.332;9.404;2023-02-28T07:48:40;92894.97;;;-2.88;70.31
65376;BME280;51976;47.332;9.404;2023-02-28T07:51:06;92881.63;;;-3.41;71.50
65376;BME280;51976;47.332;9.404;2023-02-28T07:53:32;92894.13;;;-2.95;70.65
65376;BME280;51976;47.332;9.404;2023-02-28T07:55:59;92902.16;;;-3.23;71.41
65376;BME280;51976;47.332;9.404;2023-02-28T07:58:26;92904.50;;;-2.81;70.78
65376;BME280;51976;47.332;9.404;2023-02-28T08:00:52;92888.41;;;-3.12;70.82
65376;BME280;51976;47.332;9.404;2023-02-28T08:03:19;92906.97;;;-2.79;70.79
65376;BME280;51976;47.332;9.404;2023-02-28T08:05:45;92877.69;;;-3.04;70.86
65376;BME280;51976;47.332;9.404;2023-02-28T08:08:11;92896.81;;;-2.76;69.86
65376;BME280;51976;47.332;9.404;2023-02-28T08:10:36;92889.03;;;-3.10;70.42
65376;BME280;51976;47.332;9.404;2023-02-28T08:13:02;92913.59;;;-3.03;70.98
65376;BME280;51976;47.332;9.404;2023-02-28T08:15:27;92907.91;;;-2.93;70.44
65376;BME280;51976;47.332;9.404;2023-02-28T08:17:53;92910.81;;;-2.82;70.29
65376;BME280;51976;47.332;9.404;2023-02-28T08:20:18;92915.72;;;-2.59;69.83
65376;BME280;51976;47.332;9.404;2023-02-28T08:22:44;92891.47;;;-2.95;70.29
65376;BME280;51976;47.332;9.404;2023-02-28T08:25:10;92869.75;;;-3.11;70.16
65376;BME280;51976;47.332;9.404;2023-02-28T08:27:36;92914.47;;;-2.76;69.92
65376;BME280;51976;47.332;9.404;2023-02-28T08:30:02;92906.56;;;-2.63;69.63
65376;BME280;51976;47.332;9.404;2023-02-28T08:32:28;92894.34;;;-2.84;70.19
65376;BME280;51976;47.332;9.404;2023-02-28T08:34:53;92909.00;;;-2.68;70.02
65376;BME280;51976;47.332;9.404;2023-02-28T08:37:20;92900.06;;;-2.80;70.05
65376;BME280;51976;47.332;9.404;2023-02-28T08:39:46;92900.84;;;-2.86;69.98
65376;BME280;51976;47.332;9.404;2023-02-28T08:42:11;92917.94;;;-2.43;69.36
65376;BME280;51976;47.332;9.404;2023-02-28T08:44:36;92907.78;;;-2.39;68.55
65376;BME280;51976;47.332;9.404;2023-02-28T08:47:02;92887.91;;;-2.55;68.70
65376;BME280;51976;47.332;9.404;2023-02-28T08:49:27;92908.22;;;-2.22;68.26
65376;BME280;51976;47.332;9.404;2023-02-28T08:51:53;92880.00;;;-2.48;68.33
65376;BME280;51976;47.332;9.404;2023-02-28T08:54:20;92917.56;;;-2.13;67.82
65376;BME280;51976;47.332;9.404;2023-02-28T08:56:46;92909.44;;;-2.25;68.14
65376;BME280;51976;47.332;9.404;2023-02-28T08:59:14;92924.84;;;-2.42;68.76
65376;BME280;51976;47.332;9.404;2023-02-28T09:01:40;92920.00;;;-2.05;68.13
65376;BME280;51976;47.332;9.404;2023-02-28T09:04:07;92905.34;;;-2.41;68.57
65376;BME280;51976;47.332;9.404;2023-02-28T09:06:34;92916.75;;;-2.33;68.06
65376;BME280;51976;47.332;9.404;2023-02-28T09:08:59;92921.22;;;-2.08;67.93
65376;BME280;51976;47.332;9.404;2023-02-28T09:11:26;92923.25;;;-2.10;67.64
65376;BME280;51976;47.332;9.404;2023-02-28T09:13:52;92921.63;;;-2.11;67.83
65376;BME280;51976;47.332;9.404;2023-02-28T09:16:17;92924.66;;;-2.00;67.47
65376;BME280;51976;47.332;9.404;2023-02-28T09:18:43;92923.25;;;-1.96;67.66
65376;BME280;51976;47.332;9.404;2023-02-28T09:21:13;92918.78;;;-2.09;67.94
65376;BME280;51976;47.332;9.404;2023-02-28T09:23:44;92922.00;;;-1.87;67.30
65376;BME280;51976;47.332;9.404;2023-02-28T09:26:17;92914.91;;;-2.07;67.16
65376;BME280;51976;47.332;9.404;2023-02-28T09:28:43;92925.66;;;-1.75;66.86
65376;BME280;51976;47.332;9.404;2023-02-28T09:31:16;92925.25;;;-1.72;66.83
65376;BME280;51976;47.332;9.404;2023-02-28T09:33:46;92915.09;;;-1.75;66.53
65376;BME280;51976;47.332;9.404;2023-02-28T09:36:11;92924.63;;;-1.67;66.26
65376;BME280;51976;47.332;9.404;2023-02-28T09:38:37;92927.69;;;-1.77;65.99
65376;BME280;51976;47.332;9.404;2023-02-28T09:41:09;92892.72;;;-1.73;65.87
65376;BME280;51976;47.332;9.404;2023-02-28T09:43:39;92935.56;;;-1.51;65.78
65376;BME280;51976;47.332;9.404;2023-02-28T09:46:34;92918.28;;;-1.53;65.81
65376;BME280;51976;47.332;9.404;2023-02-28T09:48:57;92928.03;;;-1.47;65.66
65376;BME280;51976;47.332;9.404;2023-02-28T09:51:33;92939.84;;;-1.56;65.51
65376;BME280;51976;47.332;9.404;2023-02-28T09:54:00;92947.00;;;-1.70;66.03
65376;BME280;51976;47.332;9.404;2023-02-28T09:56:32;92939.88;;;-1.89;66.22
65376;BME280;51976;47.332;9.404;2023-02-28T09:59:52;92948.78;;;-1.64;66.55
65376;BME280;51976;47.332;9.404;2023-02-28T10:05:02;92946.50;;;-1.34;65.72
65376;BME280;51976;47.332;9.404;2023-02-28T10:07:46;92944.31;;;-1.50;65.88
65376;BME280;51976;47.332;9.404;2023-02-28T10:10:22;92932.25;;;-1.33;65.07
65376;BME280;51976;47.332;9.404;2023-02-28T10:12:53;92946.94;;;-1.44;65.37
65376;BME280;51976;47.332;9.404;2023-02-28T10:15:22;92934.34;;;-1.42;65.12
65376;BME280;51976;47.332;9.404;2023-02-28T10:17:54;92897.56;;;-1.63;65.28
65376;BME280;51976;47.332;9.404;2023-02-28T10:20:23;92928.66;;;-1.58;65.72
65376;BME280;51976;47.332;9.404;2023-02-28T10:23:21;92933.53;;;-1.42;64.95
65376;BME280;51976;47.332;9.404;2023-02-28T10:26:09;92926.81;;;-1.58;65.37
65376;BME280;51976;47.332;9.404;2023-02-28T10:28:36;92934.94;;;-1.46;65.49
65376;BME280;51976;47.332;9.404;2023-02-28T10:31:02;92937.81;;;-1.48;65.38
65376;BME280;51976;47.332;9.404;2023-02-28T10:33:32;92940.97;;;-1.13;64.43
65376;BME280;51976;47.332;9.404;2023-02-28T10:36:03;92941.97;;;-1.14;64.41
65376;BME280;51976;47.332;9.404;2023-02-28T10:38:38;92961.53;;;-1.28;64.82
65376;BME280;51976;47.332;9.404;2023-02-28T10:41:08;92967.47;;;-1.39;65.17
65376;BME280;51976;47.332;9.404;2023-02-28T10:43:34;92956.25;;;-1.34;65.38
65376;BME280;51976;47.332;9.404;2023-02-28T10:46:11;92942.06;;;-1.53;65.29
65376;BME280;51976;47.332;9.404;2023-02-28T10:48:44;92942.69;;;-1.45;65.05
65376;BME280;51976;47.332;9.404;2023-02-28T10:51:15;92969.91;;;-1.38;65.29
65376;BME280;51976;47.332;9.404;2023-02-28T10:53:49;92953.88;;;-1.43;64.91
65376;BME280;51976;47.332;9.404;2023-02-28T10:56:18;92955.34;;;-1.66;65.65
65376;BME280;51976;47.332;9.404;2023-02-28T10:59:01;92972.56;;;-1.51;65.71
65376;BME280;51976;47.332;9.404;2023-02-28T11:01:43;92970.50;;;-1.29;65.04
65376;BME280;51976;47.332;9.404;2023-02-28T11:04:33;92960.16;;;-1.50;65.09
65376;BME280;51976;47.332;9.404;2023-02-28T11:07:21;92954.31;;;-1.72;65.91
65376;BME280;51976;47.332;9.404;2023-02-28T11:09:54;92970.75;;;-1.50;65.57
65376;BME280;51976;47.332;9.404;2023-02-28T11:12:34;92966.25;;;-1.43;65.19
65376;BME280;51976;47.332;9.404;2023-02-28T11:15:04;92960.13;;;-1.30;64.80
65376;BME280;51976;47.332;9.404;2023-02-28T11:17:32;92973.72;;;-1.20;64.91
65376;BME280;51976;47.332;9.404;2023-02-28T11:20:01;92968.72;;;-1.48;65.49
65376;BME280;51976;47.332;9.404;2023-02-28T11:22:31;92942.72;;;-1.71;65.96
65376;BME280;51976;47.332;9.404;2023-02-28T11:25:02;92964.16;;;-1.21;65.21
65376;BME280;51976;47.332;9.404;2023-02-28T11:27:51;92935.16;;;-1.54;65.58
65376;BME280;51976;47.332;9.404;2023-02-28T11:30:25;92952.38;;;-1.19;64.99
65376;BME280;51976;47.332;9.404;2023-02-28T11:32:51;92956.84;;;-1.26;65.02
65376;BME280;51976;47.332;9.404;2023-02-28T11:35:25;92937.72;;;-1.21;64.88
65376;BME280;51976;47.332;9.404;2023-02-28T11:37:51;92958.06;;;-1.15;64.64
65376;BME280;51976;47.332;9.404;2023-02-28T11:40:33;92957.56;;;-0.92;64.42
65376;BME280;51976;47.332;9.404;2023-02-28T11:43:20;92954.69;;;-0.91;64.32
65376;BME280;51976;47.332;9.404;2023-02-28T11:46:18;92947.50;;;-1.35;65.08
65376;BME280;51976;47.332;9.404;2023-02-28T11:49:28;92955.03;;;-1.25;65.03
65376;BME280;51976;47.332;9.404;2023-02-28T11:52:10;92944.72;;;-1.40;65.38
65376;BME280;51976;47.332;9.404;2023-02-28T11:55:06;92937.53;;;-1.33;65.06
65376;BME280;51976;47.332;9.404;2023-02-28T11:58:05;92953.09;;;-0.98;64.67
65376;BME280;51976;47.332;9.404;2023-02-28T12:01:02;92936.91;;;-1.15;65.05
65376;BME280;51976;47.332;9.404;2023-02-28T12:03:56;92943.06;;;-1.41;65.58
65376;BME280;51976;47.332;9.404;2023-02-28T12:06:54;92957.00;;;-1.08;65.70
65376;BME280;51976;47.332;9.404;2023-02-28T12:09:42;92951.63;;;-1.39;65.88
65376;BME280;51976;47.332;9.404;2023-02-28T12:12:32;92954.66;;;-1.42;65.83
65376;BME280;51976;47.332;9.404;2023-02-28T12:15:27;92940.78;;;-1.24;65.62
65376;BME280;51976;47.332;9.404;2023-02-28T12:18:34;92969.09;;;-1.38;65.97
65376;BME280;51976;47.332;9.404;2023-02-28T12:24:28;92947.97;;;-1.51;65.77
65376;BME280;51976;47.332;9.404;2023-02-28T12:27:01;92945.94;;;-1.49;65.86
65376;BME280;51976;47.332;9.404;2023-02-28T12:29:30;92959.72;;;-1.27;65.40
65376;BME280;51976;47.332;9.404;2023-02-28T12:32:05;92970.94;;;-1.39;65.67
65376;BME280;51976;47.332;9.404;2023-02-28T12:34:35;92962.19;;;-1.46;66.26
65376;BME280;51976;47.332;9.404;2023-02-28T12:37:07;92945.31;;;-1.45;65.78
65376;BME280;51976;47.332;9.404;2023-02-28T12:39:40;92955.28;;;-1.53;66.11
65376;BME280;51976;47.332;9.404;2023-02-28T12:42:12;92974.41;;;-1.45;66.13
65376;BME280;51976;47.332;9.404;2023-02-28T12:44:46;92969.06;;;-1.18;65.70
65376;BME280;51976;47.332;9.404;2023-02-28T12:47:17;92964.03;;;-1.40;65.79
65376;BME280;51976;47.332;9.404;2023-02-28T12:49:52;92968.66;;;-1.35;65.52
65376;BME280;51976;47.332;9.404;2023-02-28T12:55:21;92956.09;;;-1.46;65.32
65376;BME280;51976;47.332;9.404;2023-02-28T12:58:01;92963.19;;;-1.33;65.00
65376;BME280;51976;47.332;9.404;2023-02-28T13:00:35;92957.72;;;-1.39;65.00
65376;BME280;51976;47.332;9.404;2023-02-28T13:03:23;92964.19;;;-1.34;64.82
65376;BME280;51976;47.332;9.404;2023-02-28T13:09:09;92948.41;;;-0.96;63.94
65376;BME280;51976;47.332;9.404;2023-02-28T13:11:45;92948.63;;;-1.05;64.03
65376;BME280;51976;47.332;9.404;2023-02-28T13:14:36;92956.78;;;-1.06;64.07
65376;BME280;51976;47.332;9.404;2023-02-28T13:17:18;92945.78;;;-1.03;63.85
65376;BME280;51976;47.332;9.404;2023-02-28T13:19:57;92955.53;;;-0.90;63.66
65376;BME280;51976;47.332;9.404;2023-02-28T13:22:40;92952.41;;;-0.81;63.45
65376;BME280;51976;47.332;9.404;2023-02-28T13:28:13;92919.31;;;-0.96;63.16
65376;BME280;51976;47.332;9.404;2023-02-28T13:31:03;92952.53;;;-0.62;62.74
65376;BME280;51976;47.332;9.404;2023-02-28T13:33:33;92934.69;;;-0.80;63.08
65376;BME280;51976;47.332;9.404;2023-02-28T13:36:24;92949.00;;;-0.50;62.50
65376;BME280;51976;47.332;9.404;2023-02-28T13:38:52;92951.97;;;-0.71;62.84
65376;BME280;51976;47.332;9.404;2023-02-28T13:41:44;92940.25;;;-0.88;63.25
65376;BME280;51976;47.332;9.404;2023-02-28T13:44:20;92941.78;;;-0.74;63.05